Time;durP1;ratioP1;P1;durP2;ratioP2;P2;SDS_P1;SDS_P2;PMS_P1;PMS_P2;Temp;Humidity;BMP_temperature;BMP_pressure;BME280_temperature;BME280_humidity;BME280_pressure;Samples;Min_cycle;Max_cycle;Signal;HPM_P1;HPM_P2
2021/12/15 00:01:26;;;;;;;55.25;27.13;;;9.50;99.90;;;;;;5061649;28;20558;-80
2021/12/15 00:03:52;;;;;;;62.58;26.58;;;9.50;99.90;;;;;;5071319;28;20050;-80
2021/12/15 00:06:19;;;;;;;56.63;26.23;;;9.60;99.90;;;;;;5090819;28;20122;-81
2021/12/15 00:08:52;;;;;;;57.38;26.10;;;9.50;99.90;;;;;;5024187;28;20040;-81
2021/12/15 00:11:19;;;;;;;57.10;25.63;;;9.30;99.90;;;;;;5089152;28;20039;-81
2021/12/15 00:13:48;;;;;;;58.53;25.67;;;9.50;99.90;;;;;;5052661;28;20502;-81
2021/12/15 00:16:16;;;;;;;56.30;25.00;;;9.60;99.90;;;;;;5068415;28;20032;-81
2021/12/15 00:18:44;;;;;;;57.78;24.50;;;9.50;99.90;;;;;;5060796;28;20501;-80
2021/12/15 00:21:13;;;;;;;46.78;25.73;;;9.60;99.90;;;;;;5040048;28;20043;-81
2021/12/15 00:23:41;;;;;;;49.65;22.77;;;9.50;99.90;;;;;;5033494;28;20042;-80
2021/12/15 00:26:07;;;;;;;47.60;23.90;;;9.60;99.90;;;;;;5035745;28;20121;-80
2021/12/15 00:28:34;;;;;;;48.53;23.05;;;9.50;99.90;;;;;;5062947;28;20129;-80
2021/12/15 00:31:00;;;;;;;50.63;23.45;;;9.60;99.90;;;;;;5050433;28;20054;-80
2021/12/15 00:33:26;;;;;;;53.30;25.50;;;9.60;99.90;;;;;;5074469;28;20036;-80
2021/12/15 00:35:54;;;;;;;48.28;23.38;;;9.60;99.90;;;;;;5076395;28;20480;-80
2021/12/15 00:38:19;;;;;;;53.40;23.80;;;10.90;99.90;;;;;;5034271;28;20105;-80
2021/12/15 00:40:45;;;;;;;41.72;23.40;;;9.60;99.90;;;;;;5030016;28;20082;-80
2021/12/15 00:43:11;;;;;;;55.22;24.65;;;9.60;99.90;;;;;;5072701;28;20506;-80
2021/12/15 00:45:36;;;;;;;49.58;22.80;;;9.50;99.90;;;;;;5067575;28;20128;-80
2021/12/15 00:48:02;;;;;;;54.60;25.67;;;9.50;99.90;;;;;;5033086;28;20042;-79
2021/12/15 00:50:32;;;;;;;50.95;22.08;;;9.60;99.90;;;;;;5075224;28;20126;-79
2021/12/15 00:52:58;;;;;;;53.53;23.92;;;9.60;99.90;;;;;;5071219;28;20089;-80
2021/12/15 00:55:26;;;;;;;55.10;27.27;;;9.60;99.90;;;;;;5056553;28;20045;-80
2021/12/15 00:57:52;;;;;;;52.58;23.60;;;9.60;99.90;;;;;;5037591;28;20050;-80
2021/12/15 01:00:24;;;;;;;51.03;23.30;;;9.50;99.90;;;;;;5037350;28;20080;-80
2021/12/15 01:02:51;;;;;;;45.92;22.92;;;8.80;99.90;;;;;;5069747;28;20047;-80
2021/12/15 01:05:19;;;;;;;48.00;23.38;;;9.60;99.90;;;;;;5035970;28;20120;-80
2021/12/15 01:07:46;;;;;;;51.88;24.02;;;9.60;99.90;;;;;;5056119;28;20086;-79
2021/12/15 01:10:16;;;;;;;56.53;25.15;;;9.60;99.90;;;;;;5083159;28;20082;-80
2021/12/15 01:14:31;;;;;;;43.13;23.00;;;9.20;99.90;;;;;;5070756;28;20054;-80
2021/12/15 01:21:11;;;;;;;37.55;21.85;;;9.60;99.90;;;;;;5071998;28;20109;-80
2021/12/15 01:23:36;;;;;;;52.70;25.42;;;9.60;99.90;;;;;;5087078;28;20056;-80
2021/12/15 01:26:09;;;;;;;61.33;26.50;;;9.60;99.90;;;;;;5068864;28;20027;-80
2021/12/15 01:28:35;;;;;;;57.92;27.33;;;9.60;99.90;;;;;;5060103;28;20406;-79
2021/12/15 01:31:04;;;;;;;46.13;24.38;;;9.60;99.90;;;;;;5049773;28;20476;-79
2021/12/15 01:33:30;;;;;;;53.38;26.65;;;9.60;99.90;;;;;;5064126;28;20482;-79
2021/12/15 01:35:58;;;;;;;57.85;27.00;;;9.60;99.90;;;;;;5052609;28;20041;-79
2021/12/15 01:38:28;;;;;;;50.22;25.80;;;9.60;99.90;;;;;;5052879;28;20102;-79
2021/12/15 01:40:54;;;;;;;54.22;26.23;;;9.60;99.90;;;;;;5053931;28;20080;-79
2021/12/15 01:43:39;;;;;;;50.30;27.15;;;9.60;99.90;;;;;;5017526;28;20553;-79
2021/12/15 01:49:01;;;;;;;50.08;26.15;;;10.40;99.90;;;;;;5053518;28;20052;-79
2021/12/15 01:51:27;;;;;;;45.88;25.77;;;9.60;99.90;;;;;;5061609;28;20458;-79
2021/12/15 01:53:53;;;;;;;57.50;27.55;;;9.80;99.90;;;;;;5070393;28;20075;-80
2021/12/15 01:56:19;;;;;;;48.80;26.40;;;9.60;99.90;;;;;;5094417;28;20043;-79
2021/12/15 01:58:45;;;;;;;48.50;27.67;;;9.60;99.90;;;;;;5058659;28;20365;-78
2021/12/15 02:01:11;;;;;;;47.90;27.45;;;9.70;99.90;;;;;;5061005;28;20038;-79
2021/12/15 02:03:38;;;;;;;57.10;27.50;;;9.70;99.90;;;;;;5058461;28;20124;-79
2021/12/15 02:06:07;;;;;;;45.83;26.80;;;9.70;99.90;;;;;;5095012;28;20096;-79
2021/12/15 02:08:32;;;;;;;46.38;26.73;;;9.70;99.90;;;;;;5074455;28;20483;-80
2021/12/15 02:10:58;;;;;;;58.92;29.83;;;9.70;99.90;;;;;;5060396;28;20034;-80
2021/12/15 02:13:24;;;;;;;50.13;27.90;;;9.70;99.90;;;;;;5051950;28;20041;-80
2021/12/15 02:15:54;;;;;;;50.83;27.02;;;9.70;99.90;;;;;;5068102;28;20051;-80
2021/12/15 02:18:25;;;;;;;51.42;26.92;;;9.70;99.90;;;;;;5093346;28;20047;-80
2021/12/15 02:20:59;;;;;;;48.30;27.60;;;9.70;99.90;;;;;;5042390;28;20490;-80
2021/12/15 02:23:34;;;;;;;46.80;26.40;;;9.70;99.90;;;;;;5074931;28;20128;-79
2021/12/15 02:26:02;;;;;;;44.53;22.95;;;9.70;99.90;;;;;;5025459;28;20047;-80
2021/12/15 02:28:28;;;;;;;53.72;27.30;;;9.80;99.90;;;;;;5060630;28;20081;-80
2021/12/15 02:31:01;;;;;;;60.55;28.92;;;9.80;99.90;;;;;;5057273;28;20462;-80
2021/12/15 02:38:58;;;;;;;59.08;30.58;;;9.80;99.90;;;;;;5044144;28;20034;-80
2021/12/15 02:41:26;;;;;;;41.13;26.65;;;10.60;99.90;;;;;;5076999;28;20050;-80
2021/12/15 02:43:56;;;;;;;54.83;30.27;;;9.80;99.90;;;;;;5093553;28;20625;-81
2021/12/15 02:46:22;;;;;;;47.35;27.25;;;9.80;99.90;;;;;;5060300;28;20140;-80
2021/12/15 02:48:49;;;;;;;52.42;28.77;;;9.80;99.90;;;;;;5074555;28;20061;-80
2021/12/15 02:51:17;;;;;;;55.88;29.33;;;9.80;99.90;;;;;;5077073;28;20040;-80
2021/12/15 02:53:43;;;;;;;51.78;30.63;;;9.70;99.90;;;;;;5091334;28;20085;-80
2021/12/15 02:56:09;;;;;;;55.17;29.33;;;9.80;99.90;;;;;;5077828;28;20038;-80
2021/12/15 02:58:38;;;;;;;59.20;30.67;;;9.80;99.90;;;;;;5060154;28;20046;-80
2021/12/15 03:01:18;;;;;;;57.72;30.95;;;9.70;99.90;;;;;;5076433;28;20042;-80
2021/12/15 03:06:31;;;;;;;52.38;30.08;;;9.70;99.90;;;;;;5051100;28;20174;-80
2021/12/15 03:09:14;;;;;;;52.50;30.25;;;9.80;99.90;;;;;;5077305;28;20481;-80
2021/12/15 03:15:20;;;;;;;60.95;32.40;;;9.80;99.90;;;;;;5052617;28;20499;-80
2021/12/15 03:17:21;;;;;;;43.72;25.98;;;10.60;99.90;;;;;;5071064;28;20109;-79
2021/12/15 03:19:47;;;;;;;48.28;29.50;;;9.80;99.90;;;;;;5088421;28;20053;-80
2021/12/15 03:22:13;;;;;;;52.78;30.17;;;9.90;99.90;;;;;;5093458;28;20055;-80
2021/12/15 03:24:38;;;;;;;56.10;30.40;;;9.80;99.90;;;;;;5062447;28;20123;-80
2021/12/15 03:27:10;;;;;;;59.63;32.58;;;9.80;99.90;;;;;;5074811;28;20045;-79
2021/12/15 03:37:55;;;;;;;52.75;28.92;;;9.70;99.90;;;;;;5075349;28;20442;-79
2021/12/15 03:40:32;;;;;;;51.53;29.70;;;9.70;99.90;;;;;;5090503;28;20488;-79
2021/12/15 03:43:02;;;;;;;64.40;33.47;;;9.70;99.90;;;;;;5072770;28;20079;-79
2021/12/15 03:45:32;;;;;;;56.50;30.88;;;9.70;99.90;;;;;;5067958;28;20084;-79
2021/12/15 03:48:01;;;;;;;55.40;31.60;;;9.60;99.90;;;;;;5071992;28;20037;-79
2021/12/15 03:50:28;;;;;;;55.83;29.38;;;9.70;99.90;;;;;;5075130;28;20485;-79
2021/12/15 03:52:57;;;;;;;51.03;28.35;;;9.60;99.90;;;;;;5067291;28;20037;-79
2021/12/15 03:55:28;;;;;;;44.13;25.42;;;9.70;99.90;;;;;;5074923;28;20045;-79
2021/12/15 03:57:54;;;;;;;54.75;30.08;;;9.60;99.90;;;;;;5092532;28;20122;-79
2021/12/15 04:00:21;;;;;;;49.42;28.90;;;10.40;99.90;;;;;;5092451;28;20110;-79
2021/12/15 04:02:50;;;;;;;58.67;30.30;;;9.70;99.90;;;;;;5078784;28;20043;-79
2021/12/15 04:05:19;;;;;;;50.80;28.52;;;9.80;99.90;;;;;;5058202;28;20052;-79
2021/12/15 04:07:46;;;;;;;49.10;29.02;;;9.70;99.90;;;;;;5055722;28;20417;-79
2021/12/15 04:10:16;;;;;;;52.53;29.98;;;9.80;99.90;;;;;;5057622;28;20045;-80
2021/12/15 04:12:42;;;;;;;48.95;29.25;;;9.80;99.90;;;;;;5084815;28;20051;-79
2021/12/15 04:17:47;;;;;;;62.05;31.10;;;9.80;99.90;;;;;;5059935;28;20154;-79
2021/12/15 04:20:17;;;;;;;52.65;28.50;;;9.80;99.90;;;;;;5061747;28;20045;-79
2021/12/15 04:22:43;;;;;;;52.28;29.38;;;9.70;99.90;;;;;;5063681;28;20128;-79
2021/12/15 04:25:12;;;;;;;51.28;28.90;;;9.70;99.90;;;;;;5050462;28;20133;-79
2021/12/15 04:27:38;;;;;;;48.78;29.00;;;9.80;99.90;;;;;;5064239;28;20046;-79
2021/12/15 04:30:07;;;;;;;55.53;30.65;;;9.80;99.90;;;;;;5091235;28;20040;-79
2021/12/15 04:32:41;;;;;;;49.50;30.20;;;9.70;99.90;;;;;;5067128;28;20151;-79
2021/12/15 04:35:09;;;;;;;49.08;28.02;;;9.70;99.90;;;;;;5049605;28;20034;-79
2021/12/15 04:37:35;;;;;;;52.38;28.88;;;9.70;99.90;;;;;;5062627;28;20400;-79
2021/12/15 04:40:03;;;;;;;54.15;29.10;;;9.80;99.90;;;;;;5092387;28;20035;-80
2021/12/15 04:42:29;;;;;;;62.40;32.33;;;9.80;99.90;;;;;;5075616;28;20040;-80
2021/12/15 04:44:56;;;;;;;55.53;30.67;;;9.80;99.90;;;;;;5021616;28;20059;-80
2021/12/15 04:47:23;;;;;;;50.38;27.80;;;9.70;99.90;;;;;;5079530;28;20057;-80
2021/12/15 04:49:50;;;;;;;52.97;28.73;;;9.80;99.90;;;;;;5081270;28;20130;-80
2021/12/15 04:52:20;;;;;;;55.50;29.75;;;11.00;99.90;;;;;;5073580;28;20421;-80
2021/12/15 04:54:47;;;;;;;55.58;30.17;;;9.50;99.90;;;;;;5051651;28;20129;-80
2021/12/15 04:57:14;;;;;;;62.65;31.08;;;9.80;99.90;;;;;;5073933;28;20464;-80
2021/12/15 04:59:41;;;;;;;49.17;29.67;;;9.70;99.90;;;;;;5066529;28;20087;-80
2021/12/15 05:02:08;;;;;;;56.20;30.85;;;9.80;99.90;;;;;;5058142;28;20504;-80
2021/12/15 05:04:35;;;;;;;52.28;29.00;;;9.30;99.90;;;;;;5081830;28;20447;-79
2021/12/15 05:07:01;;;;;;;58.75;29.98;;;9.70;99.90;;;;;;5075569;28;20557;-80
2021/12/15 05:09:29;;;;;;;56.28;30.83;;;9.70;99.90;;;;;;5059491;28;20045;-80
2021/12/15 05:11:55;;;;;;;57.53;30.02;;;9.70;99.90;;;;;;5051845;28;20057;-79
2021/12/15 05:14:23;;;;;;;52.33;29.90;;;10.90;99.90;;;;;;5061854;28;20406;-80
2021/12/15 05:16:50;;;;;;;57.67;30.70;;;9.70;99.90;;;;;;5064588;28;20061;-80
2021/12/15 05:19:17;;;;;;;49.20;27.45;;;9.60;99.90;;;;;;5057418;28;20046;-79
2021/12/15 05:21:42;;;;;;;53.50;27.13;;;10.50;99.90;;;;;;5060499;28;20044;-79
2021/12/15 05:24:22;;;;;;;55.30;30.17;;;9.70;99.90;;;;;;5073899;28;20049;-80
2021/12/15 05:26:48;;;;;;;61.05;30.60;;;9.70;99.90;;;;;;5063383;28;20035;-80
2021/12/15 05:29:18;;;;;;;62.33;32.30;;;9.80;99.90;;;;;;5053033;28;20053;-79
2021/12/15 05:31:44;;;;;;;56.85;30.13;;;9.70;99.90;;;;;;5065259;28;20053;-80
2021/12/15 05:34:10;;;;;;;53.90;30.33;;;9.70;99.90;;;;;;5055653;28;20187;-80
2021/12/15 05:36:36;;;;;;;52.25;29.80;;;9.70;99.90;;;;;;5076553;28;20527;-79
2021/12/15 05:39:06;;;;;;;52.90;28.67;;;9.70;99.90;;;;;;5075012;28;20480;-80
2021/12/15 05:41:35;;;;;;;57.08;29.30;;;9.70;99.90;;;;;;5042864;28;20064;-80
2021/12/15 05:44:05;;;;;;;60.33;31.08;;;9.70;99.90;;;;;;5066020;28;20066;-80
2021/12/15 05:46:31;;;;;;;55.13;27.98;;;9.70;99.90;;;;;;5065142;28;20424;-80
2021/12/15 05:48:57;;;;;;;63.08;29.98;;;9.80;99.90;;;;;;5066089;28;20048;-80
2021/12/15 05:51:22;;;;;;;51.22;30.13;;;9.70;99.90;;;;;;5078481;28;20036;-80
2021/12/15 05:53:48;;;;;;;53.97;30.08;;;9.80;99.90;;;;;;5060035;28;20559;-80
2021/12/15 05:56:14;;;;;;;60.97;28.42;;;9.70;99.90;;;;;;5065458;28;20073;-80
2021/12/15 05:58:40;;;;;;;56.58;28.75;;;10.10;99.90;;;;;;5081256;28;20041;-80
2021/12/15 06:01:07;;;;;;;56.05;27.55;;;9.70;99.90;;;;;;5057594;28;20052;-80
2021/12/15 06:03:33;;;;;;;56.88;30.75;;;9.80;99.90;;;;;;5076473;28;20042;-80
2021/12/15 06:05:59;;;;;;;60.45;30.23;;;9.80;99.90;;;;;;5065733;28;20054;-80
2021/12/15 06:08:25;;;;;;;55.35;30.15;;;9.80;99.90;;;;;;5049704;28;20453;-80
2021/12/15 06:10:52;;;;;;;61.92;29.60;;;9.70;99.90;;;;;;5063272;28;20401;-80
2021/12/15 06:13:18;;;;;;;51.45;28.77;;;9.80;99.90;;;;;;5051777;28;20447;-80
2021/12/15 06:15:45;;;;;;;59.92;31.48;;;9.80;99.90;;;;;;5078988;28;20050;-80
2021/12/15 06:18:15;;;;;;;46.17;28.63;;;11.10;99.90;;;;;;5077534;28;20046;-80
2021/12/15 06:20:42;;;;;;;56.47;29.60;;;9.80;99.90;;;;;;5086598;28;20043;-80
2021/12/15 06:23:12;;;;;;;55.28;27.33;;;9.80;99.90;;;;;;5063713;28;20520;-80
2021/12/15 06:25:41;;;;;;;56.60;29.40;;;9.80;99.90;;;;;;5070748;28;20373;-80
2021/12/15 06:28:07;;;;;;;58.55;30.33;;;9.80;99.90;;;;;;5051415;28;20106;-80
2021/12/15 06:30:34;;;;;;;50.50;27.95;;;9.80;99.90;;;;;;5076362;28;20041;-80
2021/12/15 06:33:00;;;;;;;48.83;28.38;;;9.80;99.90;;;;;;5080408;28;20047;-80
2021/12/15 06:35:26;;;;;;;52.65;27.10;;;9.80;99.90;;;;;;5051268;28;20035;-81
2021/12/15 06:37:52;;;;;;;54.05;27.38;;;9.80;99.90;;;;;;5059433;28;20045;-80
2021/12/15 06:40:18;;;;;;;50.15;27.52;;;9.70;99.90;;;;;;5090438;28;20071;-81
2021/12/15 06:42:43;;;;;;;53.42;28.80;;;9.80;99.90;;;;;;5087725;28;20129;-80
2021/12/15 06:45:14;;;;;;;45.60;26.55;;;9.80;99.90;;;;;;5097944;28;20051;-80
2021/12/15 06:58:23;;;;;;;60.10;28.85;;;10.10;99.90;;;;;;5039421;28;20051;-80
2021/12/15 07:00:58;;;;;;;55.50;26.25;;;9.80;99.90;;;;;;5053376;28;20647;-80
2021/12/15 07:03:24;;;;;;;47.90;26.23;;;9.90;99.90;;;;;;5051988;28;20054;-80
2021/12/15 07:05:55;;;;;;;45.00;25.45;;;9.80;99.90;;;;;;5074586;28;20042;-81
2021/12/15 07:08:22;;;;;;;46.72;25.85;;;9.80;99.90;;;;;;5076551;28;20065;-82
2021/12/15 07:10:51;;;;;;;49.47;26.77;;;9.80;99.90;;;;;;5069983;28;20046;-80
2021/12/15 07:13:17;;;;;;;47.08;25.55;;;9.80;99.90;;;;;;5001436;28;20041;-79
2021/12/15 07:15:46;;;;;;;44.20;24.67;;;10.50;99.90;;;;;;5061685;28;20033;-81
2021/12/15 07:18:15;;;;;;;48.78;24.88;;;9.80;99.90;;;;;;5057807;28;20087;-82
2021/12/15 07:20:48;;;;;;;44.33;24.00;;;9.80;99.90;;;;;;5054143;28;20038;-79
2021/12/15 07:23:18;;;;;;;40.75;25.15;;;9.90;99.90;;;;;;5075396;28;20053;-81
2021/12/15 07:25:48;;;;;;;48.58;25.65;;;9.80;99.90;;;;;;5071941;28;20126;-81
2021/12/15 07:28:17;;;;;;;48.38;24.83;;;9.80;99.90;;;;;;5075103;28;20042;-80
2021/12/15 07:30:42;;;;;;;44.17;25.90;;;9.80;99.90;;;;;;5053654;28;20044;-78
2021/12/15 07:33:12;;;;;;;41.45;24.63;;;9.80;99.90;;;;;;5092235;28;20039;-79
2021/12/15 07:35:39;;;;;;;44.85;24.67;;;9.90;99.90;;;;;;5060338;28;20167;-81
2021/12/15 07:38:07;;;;;;;49.45;23.60;;;9.80;99.90;;;;;;5043621;28;20089;-81
2021/12/15 07:40:33;;;;;;;44.90;23.98;;;9.80;99.90;;;;;;5067439;28;20043;-80
2021/12/15 07:43:10;;;;;;;36.80;17.55;;;9.80;99.90;;;;;;5064186;28;20044;-80
2021/12/15 07:45:42;;;;;;;38.45;22.23;;;9.90;99.90;;;;;;5090715;28;20046;-79
2021/12/15 07:48:10;;;;;;;41.10;21.90;;;9.90;99.90;;;;;;5068755;28;20096;-81
2021/12/15 07:50:37;;;;;;;39.17;21.00;;;9.80;99.90;;;;;;5076570;28;20389;-81
2021/12/15 07:53:03;;;;;;;34.00;18.42;;;9.80;99.90;;;;;;5043550;28;20139;-81
2021/12/15 07:55:29;;;;;;;34.35;18.60;;;9.80;99.90;;;;;;5075472;28;20031;-80
2021/12/15 07:57:55;;;;;;;31.25;16.88;;;9.90;99.90;;;;;;5087061;28;20033;-81
2021/12/15 08:00:23;;;;;;;30.05;17.17;;;9.80;99.90;;;;;;5079044;28;20036;-80
2021/12/15 08:02:50;;;;;;;37.05;17.85;;;9.80;99.90;;;;;;5105037;27;20489;-80
2021/12/15 08:05:15;;;;;;;31.35;17.00;;;10.60;99.90;;;;;;5090706;28;20669;-79
2021/12/15 08:07:41;;;;;;;29.52;15.45;;;9.80;99.90;;;;;;5079104;28;20082;-82
2021/12/15 08:10:10;;;;;;;36.08;17.63;;;9.80;99.90;;;;;;5075095;28;20032;-81
2021/12/15 08:12:38;;;;;;;32.28;16.95;;;9.80;99.90;;;;;;5055884;28;20058;-83
2021/12/15 08:15:06;;;;;;;32.97;17.77;;;9.80;99.90;;;;;;4359365;28;10000694;-81
2021/12/15 08:17:33;;;;;;;30.48;17.08;;;9.80;99.90;;;;;;5088600;28;20055;-82
2021/12/15 08:20:11;;;;;;;36.85;18.33;;;11.50;99.90;;;;;;5065371;28;20061;-79
2021/12/15 08:22:38;;;;;;;33.65;18.40;;;9.80;99.90;;;;;;5053716;28;20042;-80
2021/12/15 08:25:06;;;;;;;34.78;17.58;;;9.80;99.90;;;;;;5035150;28;20370;-80
2021/12/15 08:27:31;;;;;;;30.27;17.42;;;9.80;99.90;;;;;;5045512;28;20048;-80
2021/12/15 08:29:57;;;;;;;42.83;21.15;;;9.90;99.90;;;;;;5059230;28;20126;-80
2021/12/15 08:32:23;;;;;;;37.05;17.73;;;9.80;99.90;;;;;;5071795;28;20042;-80
2021/12/15 08:34:48;;;;;;;32.80;19.65;;;9.80;99.90;;;;;;5077989;28;20042;-80
2021/12/15 08:37:15;;;;;;;36.30;20.42;;;9.80;99.90;;;;;;5053695;28;20504;-79
2021/12/15 08:39:42;;;;;;;34.03;18.88;;;9.80;99.90;;;;;;5081447;28;20055;-80
2021/12/15 08:42:09;;;;;;;43.80;19.50;;;9.70;99.90;;;;;;5047510;28;20077;-79
2021/12/15 08:44:35;;;;;;;33.63;17.08;;;9.70;99.90;;;;;;5055363;28;20176;-80
2021/12/15 08:47:02;;;;;;;33.70;17.63;;;9.70;99.90;;;;;;5058831;28;20032;-79
2021/12/15 08:49:28;;;;;;;31.13;16.40;;;10.80;99.90;;;;;;5074404;28;20100;-80
2021/12/15 08:51:53;;;;;;;36.13;19.17;;;9.80;99.90;;;;;;5079158;28;20501;-80
2021/12/15 08:54:21;;;;;;;35.00;16.38;;;9.80;99.90;;;;;;5072790;28;20076;-80
2021/12/15 08:56:48;;;;;;;32.85;17.77;;;9.80;99.90;;;;;;5067302;28;20087;-80
2021/12/15 08:59:14;;;;;;;33.30;16.65;;;9.80;99.90;;;;;;5055271;28;20088;-80
2021/12/15 09:01:43;;;;;;;34.55;17.23;;;10.70;99.90;;;;;;5056550;28;20073;-80
2021/12/15 09:04:09;;;;;;;34.10;18.20;;;9.00;99.90;;;;;;5088653;28;20051;-80
2021/12/15 09:06:35;;;;;;;37.05;18.98;;;9.80;99.90;;;;;;5073300;28;20047;-79
2021/12/15 09:09:03;;;;;;;37.50;19.10;;;9.80;99.90;;;;;;5054702;28;20058;-80
2021/12/15 09:11:29;;;;;;;31.05;18.00;;;9.70;99.90;;;;;;5088904;28;20039;-79
2021/12/15 09:13:57;;;;;;;34.28;17.58;;;9.70;99.90;;;;;;5085390;28;20043;-79
2021/12/15 09:16:25;;;;;;;34.20;19.33;;;9.80;99.90;;;;;;5022180;28;20121;-79
2021/12/15 09:18:52;;;;;;;32.35;17.52;;;9.80;99.90;;;;;;5093693;28;20517;-80
2021/12/15 09:21:20;;;;;;;33.55;16.85;;;9.80;99.90;;;;;;5095842;28;20089;-80
2021/12/15 09:23:45;;;;;;;36.25;18.45;;;9.70;99.90;;;;;;5084342;28;20471;-80
2021/12/15 09:26:11;;;;;;;32.50;17.27;;;9.70;99.90;;;;;;5083373;28;20584;-79
2021/12/15 09:28:38;;;;;;;29.92;16.85;;;9.70;99.90;;;;;;5065257;28;20125;-80
2021/12/15 09:31:05;;;;;;;28.48;16.13;;;9.70;99.90;;;;;;5055937;28;20049;-79
2021/12/15 09:33:39;;;;;;;31.48;17.23;;;9.60;99.90;;;;;;5027244;28;20424;-80
2021/12/15 09:36:05;;;;;;;24.55;15.35;;;9.80;99.90;;;;;;5068815;28;20050;-79
2021/12/15 09:38:33;;;;;;;27.70;15.88;;;9.80;99.90;;;;;;5078647;28;20386;-80
2021/12/15 09:41:01;;;;;;;36.75;15.93;;;10.00;99.90;;;;;;5088452;28;20042;-81
2021/12/15 09:43:28;;;;;;;30.50;15.65;;;10.00;99.90;;;;;;5065466;28;20094;-79
2021/12/15 09:46:08;;;;;;;27.55;14.15;;;11.40;99.90;;;;;;5075894;28;20489;-80
2021/12/15 10:05:24;;;;;;;26.35;14.23;;;10.00;99.90;;;;;;5061185;28;20605;-80
2021/12/15 10:19:23;;;;;;;24.77;15.27;;;9.90;99.90;;;;;;5091647;28;20125;-79
2021/12/15 10:22:31;;;;;;;23.95;13.60;;;9.90;99.90;;;;;;5068123;28;20068;-80
2021/12/15 10:25:37;;;;;;;27.20;13.77;;;9.90;99.90;;;;;;5086245;28;20046;-80
2021/12/15 10:28:26;;;;;;;22.42;14.18;;;9.80;99.90;;;;;;5085084;28;20050;-79
2021/12/15 10:30:59;;;;;;;27.77;15.63;;;9.90;99.90;;;;;;5092357;28;20475;-80
2021/12/15 10:33:32;;;;;;;21.15;12.48;;;9.90;99.90;;;;;;5032306;28;20042;-80
2021/12/15 10:36:14;;;;;;;23.70;14.10;;;9.90;99.90;;;;;;5081749;28;20049;-79
2021/12/15 10:38:45;;;;;;;26.00;13.13;;;9.90;99.90;;;;;;5071732;28;20402;-80
2021/12/15 10:41:33;;;;;;;25.58;14.15;;;9.90;99.90;;;;;;5052925;28;20241;-78
2021/12/15 10:44:24;;;;;;;25.27;13.32;;;9.90;99.90;;;;;;5053418;28;20046;-80
2021/12/15 10:47:06;;;;;;;29.52;14.32;;;10.00;99.90;;;;;;5062813;28;20085;-80
2021/12/15 10:49:37;;;;;;;25.42;14.35;;;10.00;99.90;;;;;;5054632;28;20046;-81
2021/12/15 10:52:11;;;;;;;26.70;13.88;;;9.90;99.90;;;;;;4381201;28;9999909;-80
2021/12/15 10:54:56;;;;;;;27.05;13.93;;;10.00;99.90;;;;;;5078702;28;20062;-79
2021/12/15 10:57:32;;;;;;;17.23;12.60;;;11.10;99.90;;;;;;5081242;28;20031;-79
2021/12/15 10:59:59;;;;;;;23.10;12.75;;;9.90;99.90;;;;;;5073448;28;20492;-80
2021/12/15 11:02:32;;;;;;;28.75;13.98;;;10.00;99.90;;;;;;5074192;28;20480;-79
2021/12/15 11:05:01;;;;;;;22.88;12.77;;;10.00;99.90;;;;;;5070588;28;20070;-79
2021/12/15 11:07:36;;;;;;;26.20;14.88;;;10.00;99.90;;;;;;5073725;28;20103;-79
2021/12/15 11:10:33;;;;;;;18.80;12.20;;;10.00;99.90;;;;;;5061744;28;20425;-80
2021/12/15 11:13:12;;;;;;;21.38;11.35;;;10.10;99.90;;;;;;5049184;28;20047;-80
2021/12/15 11:15:50;;;;;;;22.95;12.05;;;10.10;99.90;;;;;;5071378;28;20081;-79
2021/12/15 11:18:25;;;;;;;19.40;10.55;;;10.10;99.90;;;;;;5075593;27;20153;-81
2021/12/15 11:20:53;;;;;;;20.90;10.90;;;11.10;99.90;;;;;;5073458;28;20109;-80
2021/12/15 11:23:23;;;;;;;22.08;11.40;;;10.10;99.90;;;;;;5091369;28;20067;-81
2021/12/15 11:26:04;;;;;;;16.73;9.13;;;10.10;99.90;;;;;;5072483;28;20130;-80
2021/12/15 11:28:44;;;;;;;18.05;9.48;;;10.10;99.90;;;;;;5066480;28;20051;-80
2021/12/15 11:31:15;;;;;;;18.83;9.10;;;9.20;99.90;;;;;;5091142;28;20502;-80
2021/12/15 11:34:01;;;;;;;19.10;8.98;;;10.20;99.90;;;;;;5109286;28;20045;-81
2021/12/15 11:36:31;;;;;;;16.00;8.75;;;10.20;99.90;;;;;;5115998;27;20548;-80
2021/12/15 11:39:10;;;;;;;15.95;8.73;;;10.20;99.90;;;;;;5109085;28;20547;-80
2021/12/15 11:41:40;;;;;;;15.82;8.40;;;10.40;99.90;;;;;;5073228;28;20107;-80
2021/12/15 11:44:08;;;;;;;15.02;6.63;;;10.20;99.90;;;;;;5115165;27;20521;-80
2021/12/15 11:46:41;;;;;;;16.10;8.43;;;10.30;99.90;;;;;;5103856;28;20391;-80
2021/12/15 11:49:13;;;;;;;20.20;7.22;;;10.20;99.90;;;;;;5115203;27;20055;-80
2021/12/15 11:51:58;;;;;;;13.32;6.30;;;10.20;99.90;;;;;;5072276;28;20050;-80
2021/12/15 11:54:37;;;;;;;13.60;5.93;;;10.30;99.90;;;;;;5113122;27;20545;-81
2021/12/15 11:57:19;;;;;;;14.38;5.70;;;10.30;99.90;;;;;;5090598;28;20123;-79
2021/12/15 11:59:49;;;;;;;11.60;5.50;;;10.30;99.90;;;;;;5068086;28;20601;-80
2021/12/15 12:02:32;;;;;;;8.82;4.55;;;10.30;99.90;;;;;;5119704;27;20031;-80
2021/12/15 12:05:09;;;;;;;12.68;3.92;;;10.30;99.90;;;;;;5074085;28;20040;-80
2021/12/15 12:07:46;;;;;;;12.02;3.88;;;10.40;99.90;;;;;;5082345;28;20062;-81
2021/12/15 12:10:22;;;;;;;7.40;3.45;;;10.40;99.90;;;;;;5109580;27;20177;-80
2021/12/15 12:13:02;;;;;;;11.95;3.63;;;10.40;99.90;;;;;;5093064;27;20039;-80
2021/12/15 12:15:29;;;;;;;13.38;4.18;;;10.40;99.90;;;;;;5089690;28;20075;-80
2021/12/15 12:18:00;;;;;;;14.32;4.00;;;10.10;99.90;;;;;;5031963;28;20133;-80
2021/12/15 12:20:40;;;;;;;13.20;5.43;;;11.30;99.90;;;;;;5029671;28;20421;-80
2021/12/15 12:23:09;;;;;;;9.57;4.28;;;10.30;99.90;;;;;;5063736;28;20055;-79
2021/12/15 12:25:39;;;;;;;13.82;4.13;;;10.30;99.90;;;;;;5064943;28;20047;-80
2021/12/15 12:28:09;;;;;;;10.38;4.00;;;10.30;99.90;;;;;;5063330;28;20054;-79
2021/12/15 12:30:47;;;;;;;8.65;3.55;;;10.40;99.90;;;;;;5017206;28;20039;-80
2021/12/15 12:33:19;;;;;;;11.05;3.28;;;10.40;99.90;;;;;;5047879;28;20138;-79
2021/12/15 12:36:12;;;;;;;7.10;3.30;;;10.30;99.90;;;;;;5014628;28;20046;-78
2021/12/15 12:38:46;;;;;;;10.45;3.25;;;11.40;99.90;;;;;;5024006;28;20050;-80
2021/12/15 12:41:22;;;;;;;10.70;2.97;;;10.50;99.90;;;;;;5060908;28;20117;-79
2021/12/15 12:43:52;;;;;;;7.72;3.65;;;10.30;99.90;;;;;;5081031;27;20046;-80
2021/12/15 12:46:39;;;;;;;7.45;3.47;;;10.40;99.90;;;;;;5039567;28;20377;-80
2021/12/15 13:00:28;;;;;;;6.95;2.10;;;10.30;99.90;;;;;;5040708;28;20132;-80
2021/12/15 13:03:02;;;;;;;8.02;3.05;;;10.20;99.90;;;;;;5013105;28;20087;-80
2021/12/15 13:05:43;;;;;;;8.23;2.13;;;10.20;99.90;;;;;;5044019;27;20046;-80
2021/12/15 13:08:10;;;;;;;9.77;2.75;;;10.10;99.90;;;;;;5027905;28;20129;-80
2021/12/15 13:11:00;;;;;;;7.65;2.42;;;10.00;99.90;;;;;;5024189;28;20288;-80
2021/12/15 13:13:36;;;;;;;5.00;1.77;;;10.00;99.90;;;;;;5042899;28;20046;-80
2021/12/15 13:16:07;;;;;;;7.53;2.15;;;10.00;99.90;;;;;;5036645;28;20040;-80
2021/12/15 13:18:54;;;;;;;7.40;2.33;;;10.00;99.90;;;;;;5095089;28;20051;-81
2021/12/15 13:22:17;;;;;;;5.13;1.83;;;10.00;99.90;;;;;;5101380;28;20078;-81
2021/12/15 13:31:03;;;;;;;5.97;1.75;;;9.90;99.90;;;;;;5102375;28;20043;-80
2021/12/15 13:33:32;;;;;;;8.88;1.85;;;9.90;99.90;;;;;;5078245;28;20043;-81
2021/12/15 13:36:08;;;;;;;9.07;1.98;;;9.90;99.90;;;;;;5099026;28;20036;-81
2021/12/15 13:38:42;;;;;;;4.55;1.50;;;9.90;99.90;;;;;;5090632;28;20051;-80
2021/12/15 13:41:36;;;;;;;4.00;2.35;;;9.80;99.90;;;;;;5097253;28;20054;-81
2021/12/15 13:44:21;;;;;;;9.13;2.53;;;9.80;99.90;;;;;;5089805;28;20065;-81
2021/12/15 13:47:16;;;;;;;7.05;2.03;;;9.70;99.90;;;;;;5097148;28;20700;-81
2021/12/15 13:49:43;;;;;;;;;;;9.60;99.90;;;;;;5082230;28;20055;-80
2021/12/15 13:52:16;;;;;;;8.52;1.67;;;9.60;99.90;;;;;;5109381;27;19978;-80
2021/12/15 13:54:42;;;;;;;6.38;2.05;;;9.50;99.90;;;;;;5098661;27;20055;-80
2021/12/15 13:57:13;;;;;;;8.95;1.70;;;9.50;99.90;;;;;;5094530;28;20436;-79
2021/12/15 13:59:53;;;;;;;7.72;2.13;;;9.50;99.90;;;;;;5112240;27;20043;-80
2021/12/15 14:02:29;;;;;;;6.25;1.83;;;9.40;99.90;;;;;;5116125;27;20044;-80
2021/12/15 14:05:09;;;;;;;11.38;1.90;;;9.40;99.90;;;;;;5089789;28;20039;-80
2021/12/15 14:07:41;;;;;;;7.47;1.30;;;9.40;99.90;;;;;;5096557;28;20083;-81
2021/12/15 14:10:09;;;;;;;8.00;1.63;;;9.50;99.90;;;;;;5075511;28;20067;-80
2021/12/15 14:12:44;;;;;;;7.40;1.88;;;9.50;99.90;;;;;;5113201;28;20102;-80
2021/12/15 14:15:15;;;;;;;7.03;1.65;;;9.50;99.90;;;;;;5093534;28;20483;-81
2021/12/15 14:17:42;;;;;;;11.13;2.00;;;9.50;99.90;;;;;;5080102;28;20063;-80
2021/12/15 14:20:17;;;;;;;3.83;0.93;;;9.60;99.90;;;;;;5054031;28;20045;-81
2021/12/15 14:22:43;;;;;;;8.07;1.20;;;9.60;99.90;;;;;;5054201;28;20037;-80